Time;durP1;ratioP1;P1;durP2;ratioP2;P2;SDS_P1;SDS_P2;PMS_P1;PMS_P2;Temp;Humidity;BMP_temperature;BMP_pressure;BME280_temperature;BME280_humidity;BME280_pressure;Samples;Min_cycle;Max_cycle;Signal;HPM_P1;HPM_P2
2022/09/30 00:00:01;;;;;;;12.70;9.13;;;;;;;8.47;78.27;100555.09;3578347;40;20045;-64
2022/09/30 00:02:27;;;;;;;13.45;9.48;;;;;;;8.44;78.68;100552.59;3577108;40;20089;-63
2022/09/30 00:04:52;;;;;;;13.57;9.30;;;;;;;8.42;79.18;100553.63;3577111;40;20049;-64
2022/09/30 00:07:18;;;;;;;10.32;8.93;;;;;;;8.41;79.36;100566.16;3575740;40;20060;-63
2022/09/30 00:09:43;;;;;;;15.65;10.07;;;;;;;8.36;78.90;100560.16;3580618;40;20078;-63
2022/09/30 00:12:09;;;;;;;13.57;9.90;;;;;;;8.34;79.07;100567.41;3581235;40;20047;-63
2022/09/30 00:14:36;;;;;;;13.77;9.98;;;;;;;8.19;79.18;100544.19;3580618;40;20342;-63
2022/09/30 00:17:02;;;;;;;13.38;10.48;;;;;;;8.30;78.84;100572.06;3581775;40;20052;-63
2022/09/30 00:19:28;;;;;;;13.75;9.45;;;;;;;8.31;79.24;100572.97;3580942;40;20318;-63
2022/09/30 00:21:53;;;;;;;13.10;9.60;;;;;;;8.26;78.79;100567.00;3582706;40;20078;-63
2022/09/30 00:24:19;;;;;;;11.40;8.68;;;;;;;8.13;78.22;100553.44;3580166;40;20052;-63
2022/09/30 00:26:45;;;;;;;11.48;8.68;;;;;;;8.18;78.61;100574.56;3581835;40;20125;-63
2022/09/30 00:29:11;;;;;;;16.65;9.52;;;;;;;8.12;79.42;100563.28;3581515;40;20067;-63
2022/09/30 00:31:38;;;;;;;12.15;8.65;;;;;;;7.39;79.37;100450.50;3578997;40;20060;-63
2022/09/30 00:34:07;;;;;;;14.13;9.25;;;;;;;8.04;78.95;100554.81;3582743;40;20201;-63
2022/09/30 00:36:49;;;;;;;13.77;9.13;;;;;;;7.53;79.16;100478.28;3583340;40;20056;-63
2022/09/30 00:39:23;;;;;;;13.73;8.98;;;;;;;7.41;79.27;100458.41;3579452;40;20056;-63
2022/09/30 00:41:55;;;;;;;15.43;8.88;;;;;;;7.53;79.26;100473.78;3580656;40;20048;-63
2022/09/30 00:44:46;;;;;;;15.82;9.68;;;;;;;8.03;78.20;100563.78;3580574;40;20049;-63
2022/09/30 00:48:09;;;;;;;16.80;9.43;;;;;;;8.00;78.88;100568.47;3578985;40;20055;-63
2022/09/30 00:50:47;;;;;;;13.43;8.80;;;;;;;7.95;78.66;100565.16;3576590;40;20052;-63
2022/09/30 00:53:36;;;;;;;18.02;9.65;;;;;;;7.94;79.58;100566.97;3581415;40;20096;-62
2022/09/30 00:56:13;;;;;;;19.67;10.18;;;;;;;7.94;79.32;100569.66;3588271;40;20471;-63
2022/09/30 00:58:44;;;;;;;19.27;9.60;;;;;;;7.93;79.44;100570.59;3579687;40;20082;-62
2022/09/30 01:01:11;;;;;;;15.15;9.63;;;;;;;7.93;79.66;100573.28;3582019;40;20052;-63
2022/09/30 01:03:55;;;;;;;13.52;9.70;;;;;;;7.91;79.32;100569.81;3579424;40;20060;-63
2022/09/30 01:06:23;;;;;;;15.05;9.88;;;;;;;7.88;79.50;100564.63;3577209;40;20092;-63
2022/09/30 01:08:50;;;;;;;15.95;9.93;;;;;;;7.87;80.11;100569.13;3573307;40;20103;-62
2022/09/30 01:11:16;;;;;;;13.43;10.00;;;;;;;7.75;79.49;100553.72;3577710;40;20048;-63
2022/09/30 01:13:51;;;;;;;12.32;9.68;;;;;;;7.79;79.55;100567.81;3578229;40;20050;-63
2022/09/30 01:16:45;;;;;;;11.88;9.88;;;;;;;7.74;80.08;100568.06;3578018;40;20052;-63
2022/09/30 01:19:57;;;;;;;15.30;9.25;;;;;;;7.75;79.86;100575.13;3579171;40;20059;-63
2022/09/30 01:22:38;;;;;;;11.23;9.68;;;;;;;7.74;79.42;100572.53;3572651;40;20363;-62
2022/09/30 01:25:28;;;;;;;15.65;10.13;;;;;;;7.69;79.40;100570.13;3578464;40;20051;-62
2022/09/30 01:28:11;;;;;;;12.60;9.75;;;;;;;7.63;79.40;100568.63;3583317;40;20064;-63
2022/09/30 01:30:54;;;;;;;14.60;10.18;;;;;;;7.62;80.00;100577.63;3578275;40;20156;-62
2022/09/30 01:33:44;;;;;;;13.60;10.32;;;;;;;7.61;80.12;100572.31;3579137;40;20109;-63
2022/09/30 01:36:24;;;;;;;12.70;9.95;;;;;;;7.61;78.87;100567.88;3576828;40;20402;-62
2022/09/30 01:39:07;;;;;;;13.02;10.48;;;;;;;7.50;79.48;100548.84;3579055;40;20055;-63
2022/09/30 01:41:53;;;;;;;16.65;11.38;;;;;;;6.82;80.04;100441.97;3574189;40;20061;-62
2022/09/30 01:44:52;;;;;;;15.57;12.13;;;;;;;6.76;79.80;100428.94;3581881;40;20057;-63
2022/09/30 01:47:45;;;;;;;17.00;11.20;;;;;;;7.55;79.84;100568.19;3579529;40;20103;-63
2022/09/30 01:50:29;;;;;;;13.80;10.50;;;;;;;7.58;78.92;100573.38;3579721;40;20068;-62
2022/09/30 01:53:21;;;;;;;14.48;10.20;;;;;;;7.46;78.83;100552.63;3576660;40;20108;-63
2022/09/30 01:56:26;;;;;;;13.68;9.70;;;;;;;7.58;78.86;100568.03;3577129;40;20044;-63
2022/09/30 01:58:57;;;;;;;;;;;;;;;7.56;78.64;100569.06;3575949;40;20113;-63
2022/09/30 02:01:38;;;;;;;13.38;10.35;;;;;;;7.47;79.49;100559.69;3579194;40;19928;-63
2022/09/30 02:04:18;;;;;;;13.60;10.43;;;;;;;7.54;79.64;100582.50;3577584;40;20061;-62
2022/09/30 02:06:54;;;;;;;15.45;11.55;;;;;;;7.55;80.03;100568.19;3576028;40;20049;-63
2022/09/30 02:09:40;;;;;;;14.73;11.98;;;;;;;7.50;79.15;100572.06;3574880;40;20315;-63
2022/09/30 02:12:13;;;;;;;21.27;12.10;;;;;;;7.47;79.87;100570.41;3575189;40;20063;-63
2022/09/30 02:15:00;;;;;;;16.23;11.73;;;;;;;7.38;79.56;100554.84;3576352;40;20116;-63
2022/09/30 02:17:41;;;;;;;24.90;13.68;;;;;;;7.48;79.28;100572.13;3575635;40;20060;-63
2022/09/30 02:20:18;;;;;;;18.83;12.30;;;;;;;7.43;79.23;100564.34;3577386;40;20059;-62
2022/09/30 02:23:04;;;;;;;21.30;12.15;;;;;;;7.43;79.75;100558.16;3576788;40;20056;-62
2022/09/30 02:25:38;;;;;;;17.58;11.40;;;;;;;7.47;79.26;100565.06;3578593;40;20053;-62
2022/09/30 02:28:14;;;;;;;18.30;11.35;;;;;;;7.52;78.69;100586.22;3581124;40;20479;-63
2022/09/30 02:30:49;;;;;;;16.20;11.60;;;;;;;6.91;78.16;100483.34;3587051;39;20101;-62
2022/09/30 02:33:28;;;;;;;17.95;11.25;;;;;;;7.47;78.48;100581.09;3585540;40;20063;-62
2022/09/30 02:36:07;;;;;;;22.50;11.98;;;;;;;7.48;79.09;100584.63;3582351;40;20351;-63
2022/09/30 02:38:43;;;;;;;20.30;12.02;;;;;;;6.78;78.35;100458.22;3577597;40;20125;-62
2022/09/30 02:41:26;;;;;;;19.55;12.52;;;;;;;7.46;78.91;100568.69;3578721;40;20060;-63
2022/09/30 02:43:55;;;;;;;16.20;12.70;;;;;;;7.45;79.30;100569.59;3577373;40;20146;-62
2022/09/30 02:46:56;;;;;;;17.10;13.77;;;;;;;7.41;79.84;100565.38;3581474;40;20052;-63
2022/09/30 02:49:42;;;;;;;15.80;12.60;;;;;;;7.42;79.89;100578.69;3582779;40;20476;-63
2022/09/30 02:52:27;;;;;;;17.27;12.50;;;;;;;6.03;79.70;100345.50;3579938;40;20063;-63
2022/09/30 02:55:28;;;;;;;19.38;13.30;;;;;;;7.32;79.66;100557.84;3582955;40;20060;-62
2022/09/30 02:58:18;;;;;;;16.90;12.38;;;;;;;7.35;79.24;100573.72;3586521;40;20068;-64
2022/09/30 03:00:44;;;;;;;18.05;12.15;;;;;;;7.34;79.35;100574.66;3578618;40;20343;-63
2022/09/30 03:03:20;;;;;;;16.40;12.68;;;;;;;7.26;79.77;100571.53;3579043;40;20136;-63
2022/09/30 03:05:49;;;;;;;14.85;12.68;;;;;;;7.14;80.11;100559.69;3583580;40;20064;-63
2022/09/30 03:08:16;;;;;;;19.85;12.52;;;;;;;7.26;80.14;100582.22;3580861;40;20048;-62
2022/09/30 03:10:49;;;;;;;16.02;14.27;;;;;;;7.23;79.67;100577.91;3580460;40;20045;-62
2022/09/30 03:13:51;;;;;;;17.60;14.35;;;;;;;7.19;80.28;100581.69;3576712;40;20067;-62
2022/09/30 03:17:02;;;;;;;17.52;13.60;;;;;;;7.17;80.17;100584.44;3582669;40;20044;-62
2022/09/30 03:19:53;;;;;;;21.52;14.55;;;;;;;7.17;80.34;100584.44;3584086;40;20088;-62
2022/09/30 03:22:26;;;;;;;20.90;13.30;;;;;;;7.18;80.17;100582.63;3581247;40;20060;-63
2022/09/30 03:25:18;;;;;;;16.90;13.53;;;;;;;7.13;79.88;100582.00;3583867;40;20064;-62
2022/09/30 03:28:08;;;;;;;18.55;13.70;;;;;;;7.18;80.53;100587.97;3581047;40;20063;-62
2022/09/30 03:30:51;;;;;;;15.40;13.77;;;;;;;6.44;80.10;100476.00;3582024;40;20387;-62
2022/09/30 03:33:39;;;;;;;15.57;12.88;;;;;;;7.11;79.96;100579.41;3580335;40;20056;-63
2022/09/30 03:36:35;;;;;;;17.65;14.73;;;;;;;7.16;80.53;100592.53;3583317;40;20379;-62
2022/09/30 03:39:35;;;;;;;16.63;13.55;;;;;;;7.10;80.29;100580.34;3585249;40;20332;-63
2022/09/30 03:42:11;;;;;;;18.88;13.38;;;;;;;7.09;80.38;100583.97;3585066;39;20052;-63
2022/09/30 03:45:02;;;;;;;17.15;14.18;;;;;;;7.11;80.70;100589.25;3581655;40;20095;-63
2022/09/30 03:47:34;;;;;;;14.95;13.07;;;;;;;7.11;79.77;100592.78;3578283;40;20056;-62
2022/09/30 03:50:07;;;;;;;15.75;14.00;;;;;;;7.06;79.60;100597.47;3581279;40;20063;-62
2022/09/30 03:52:35;;;;;;;;;;;;;;;6.30;79.99;100466.00;3579127;40;20055;-63
2022/09/30 03:55:06;;;;;;;17.65;13.65;;;;;;;6.53;79.96;100502.19;3579674;40;19958;-62
2022/09/30 03:57:32;;;;;;;16.80;13.30;;;;;;;7.12;80.30;100597.16;3580958;40;20084;-62
2022/09/30 03:59:59;;;;;;;18.25;13.88;;;;;;;6.37;80.09;100479.88;3577461;40;20158;-63
2022/09/30 04:02:26;;;;;;;17.92;14.15;;;;;;;7.13;80.12;100609.56;3578566;40;20056;-63
2022/09/30 04:04:52;;;;;;;16.98;15.00;;;;;;;7.13;80.51;100614.06;3581988;40;20233;-62
2022/09/30 04:07:18;;;;;;;16.58;14.68;;;;;;;7.14;80.60;100615.81;3582405;40;20444;-63
2022/09/30 04:09:44;;;;;;;20.40;15.20;;;;;;;7.15;80.46;100617.53;3583692;40;20314;-62
2022/09/30 04:12:10;;;;;;;17.73;15.60;;;;;;;7.13;80.07;100617.59;3586646;40;20068;-63
2022/09/30 04:14:36;;;;;;;17.25;14.80;;;;;;;7.10;79.90;100635.59;3584325;40;20052;-62
2022/09/30 04:17:03;;;;;;;18.48;16.10;;;;;;;6.39;80.61;100526.94;3582637;40;20048;-63
2022/09/30 04:19:29;;;;;;;17.17;15.38;;;;;;;7.12;79.88;100645.28;3580856;39;20411;-62
2022/09/30 04:21:55;;;;;;;21.77;15.57;;;;;;;7.11;79.74;100643.56;3581324;40;20057;-63
2022/09/30 04:24:23;;;;;;;21.48;16.25;;;;;;;7.11;79.27;100659.59;3581589;39;20045;-63
2022/09/30 04:26:50;;;;;;;18.38;15.68;;;;;;;7.12;79.54;100669.34;3580497;40;20060;-62
2022/09/30 04:29:16;;;;;;;21.05;14.93;;;;;;;7.13;79.11;100665.72;3581867;40;20100;-62
2022/09/30 04:31:42;;;;;;;17.70;15.45;;;;;;;7.09;78.61;100679.31;3580767;40;20122;-63
2022/09/30 04:34:10;;;;;;;19.38;16.23;;;;;;;7.03;79.10;100660.91;3583875;40;20052;-62
2022/09/30 04:36:36;;;;;;;22.27;17.00;;;;;;;6.31;79.52;100550.47;3582655;39;20341;-62
2022/09/30 04:39:02;;;;;;;21.33;16.85;;;;;;;7.01;79.95;100658.34;3586822;40;20060;-62
2022/09/30 04:41:28;;;;;;;24.50;17.98;;;;;;;6.39;80.06;100566.97;3581014;40;20278;-63
2022/09/30 04:43:54;;;;;;;20.65;17.80;;;;;;;7.04;80.11;100657.28;3581526;40;20077;-63
2022/09/30 04:46:21;;;;;;;21.48;17.27;;;;;;;7.07;80.76;100658.03;3577807;40;20392;-62
2022/09/30 04:48:48;;;;;;;22.02;17.98;;;;;;;7.06;80.25;100663.44;3578147;40;20141;-62
2022/09/30 04:51:20;;;;;;;21.88;16.85;;;;;;;7.05;79.77;100672.41;3580434;40;20060;-63
2022/09/30 04:53:47;;;;;;;23.48;17.23;;;;;;;7.03;80.62;100666.25;3577891;40;20288;-63
2022/09/30 04:56:15;;;;;;;20.85;16.73;;;;;;;7.02;79.30;100678.75;3579090;40;20051;-62
2022/09/30 04:58:42;;;;;;;19.25;16.27;;;;;;;6.44;80.19;100585.47;3577642;40;20134;-62
2022/09/30 05:01:13;;;;;;;21.00;16.35;;;;;;;6.98;79.93;100670.03;3580581;40;20048;-62
2022/09/30 05:03:42;;;;;;;22.25;18.23;;;;;;;7.02;80.27;100692.13;3580328;40;20140;-62
2022/09/30 05:06:09;;;;;;;20.63;16.90;;;;;;;7.01;80.33;100681.50;3579741;40;20047;-62
2022/09/30 05:08:35;;;;;;;21.90;17.80;;;;;;;6.91;80.00;100673.06;3579390;40;20127;-62
2022/09/30 05:11:10;;;;;;;22.40;19.25;;;;;;;6.97;80.57;100689.66;3584877;40;20059;-62
2022/09/30 05:13:39;;;;;;;21.30;17.20;;;;;;;6.94;80.48;100683.59;3581762;40;20307;-62
2022/09/30 05:16:07;;;;;;;23.42;19.00;;;;;;;6.94;81.14;100692.47;3583816;40;20058;-62
2022/09/30 05:18:33;;;;;;;22.60;18.65;;;;;;;6.93;80.87;100682.75;3579892;40;20523;-62
2022/09/30 05:21:01;;;;;;;20.92;18.58;;;;;;;6.91;80.19;100687.31;3584076;40;20086;-62
2022/09/30 05:23:30;;;;;;;23.02;17.55;;;;;;;6.88;81.20;100699.94;3583902;40;20052;-62
2022/09/30 05:25:58;;;;;;;23.98;18.23;;;;;;;6.94;80.14;100699.63;3582711;40;20102;-62
2022/09/30 05:28:24;;;;;;;20.55;17.77;;;;;;;6.93;80.21;100697.91;3578841;40;20055;-62
2022/09/30 05:30:59;;;;;;;19.60;17.40;;;;;;;6.94;80.15;100699.63;3580707;40;20060;-62
2022/09/30 05:33:25;;;;;;;22.75;17.65;;;;;;;6.86;80.15;100686.66;3580187;40;20488;-63
2022/09/30 05:35:51;;;;;;;20.70;16.17;;;;;;;6.92;80.43;100691.72;3577557;40;20103;-62
2022/09/30 05:38:17;;;;;;;21.55;18.00;;;;;;;6.93;81.07;100697.91;3581917;40;20063;-62
2022/09/30 05:40:43;;;;;;;19.42;17.33;;;;;;;6.95;80.74;100709.41;3580085;40;20104;-63
2022/09/30 05:43:09;;;;;;;19.75;17.65;;;;;;;6.84;80.66;100693.00;3580139;40;20090;-62
2022/09/30 05:45:35;;;;;;;21.35;18.00;;;;;;;6.96;80.65;100719.16;3579480;40;20413;-63
2022/09/30 05:48:01;;;;;;;21.40;17.45;;;;;;;6.91;80.82;100714.03;3580690;40;20076;-62
2022/09/30 05:50:27;;;;;;;23.75;18.85;;;;;;;6.97;80.63;100732.41;3581038;40;20080;-62
2022/09/30 05:52:52;;;;;;;23.90;18.90;;;;;;;6.23;80.67;100603.38;3581689;40;20084;-62
2022/09/30 05:55:21;;;;;;;25.30;18.92;;;;;;;7.04;81.00;100732.13;3581225;40;20064;-62
2022/09/30 05:57:49;;;;;;;20.98;18.00;;;;;;;7.06;81.04;100736.47;3579209;40;20606;-62
2022/09/30 06:00:15;;;;;;;22.20;18.42;;;;;;;7.07;81.05;100738.22;3581360;40;20060;-62
2022/09/30 06:02:42;;;;;;;22.90;19.30;;;;;;;7.09;81.35;100736.31;3580194;40;20056;-62
2022/09/30 06:05:09;;;;;;;21.35;18.27;;;;;;;7.03;81.54;100728.59;3580131;40;20060;-62
2022/09/30 06:07:36;;;;;;;24.85;19.27;;;;;;;7.14;81.19;100747.66;3578929;40;20056;-62
2022/09/30 06:10:06;;;;;;;21.42;17.85;;;;;;;7.17;81.25;100750.19;3581710;40;20052;-62
2022/09/30 06:12:34;;;;;;;21.75;18.30;;;;;;;7.17;80.88;100754.66;3580406;40;20134;-62
2022/09/30 06:15:00;;;;;;;24.65;17.85;;;;;;;7.24;81.59;100760.56;3581250;40;20059;-62
2022/09/30 06:17:25;;;;;;;20.73;18.08;;;;;;;7.29;81.68;100758.53;3581705;40;20314;-62
2022/09/30 06:19:51;;;;;;;21.75;17.88;;;;;;;6.68;81.40;100655.50;3582819;40;20060;-62
2022/09/30 06:22:17;;;;;;;20.42;18.33;;;;;;;7.41;81.51;100764.13;3582909;40;20418;-62
2022/09/30 06:24:44;;;;;;;24.00;17.00;;;;;;;7.44;81.50;100757.75;3581348;40;20118;-62
2022/09/30 06:27:10;;;;;;;19.10;16.60;;;;;;;7.49;81.33;100755.75;3580175;40;20341;-63
2022/09/30 06:29:37;;;;;;;22.20;16.88;;;;;;;7.56;81.41;100772.34;3580965;40;20126;-62
2022/09/30 06:32:03;;;;;;;19.83;16.45;;;;;;;7.56;81.62;100770.53;3582106;40;20346;-62
2022/09/30 06:34:28;;;;;;;19.67;16.98;;;;;;;7.63;81.61;100779.09;3581924;40;20048;-62
2022/09/30 06:36:54;;;;;;;20.10;17.60;;;;;;;7.61;81.12;100760.47;3581966;40;20124;-62
2022/09/30 06:39:20;;;;;;;19.67;17.55;;;;;;;7.00;81.30;100656.56;3580078;40;20391;-62
2022/09/30 06:41:45;;;;;;;21.92;17.08;;;;;;;7.73;81.07;100767.00;3579813;40;20175;-62
2022/09/30 06:44:11;;;;;;;21.17;16.80;;;;;;;7.74;81.64;100754.47;3589862;40;20076;-63
2022/09/30 06:46:38;;;;;;;22.38;18.00;;;;;;;7.75;81.45;100766.94;3581897;40;20075;-62
2022/09/30 06:49:05;;;;;;;24.40;19.08;;;;;;;7.83;81.88;100754.00;3582152;40;20051;-62
2022/09/30 06:51:35;;;;;;;22.00;18.98;;;;;;;7.89;82.02;100759.03;3588227;39;20402;-62
2022/09/30 06:54:01;;;;;;;21.55;19.25;;;;;;;7.97;82.74;100762.19;3583138;40;20056;-62
2022/09/30 06:56:27;;;;;;;24.35;19.30;;;;;;;7.95;82.21;100742.66;3579223;40;20125;-62
2022/09/30 06:58:55;;;;;;;22.67;18.88;;;;;;;8.09;82.71;100758.03;3582641;40;20072;-62
2022/09/30 07:01:23;;;;;;;24.38;20.10;;;;;;;8.09;82.93;100745.50;3581933;40;20398;-62
2022/09/30 07:03:56;;;;;;;25.90;21.60;;;;;;;8.30;83.11;100759.53;3580891;40;20113;-62
2022/09/30 07:06:25;;;;;;;24.92;20.05;;;;;;;8.40;82.19;100759.06;3582006;40;20044;-62
2022/09/30 07:08:52;;;;;;;25.85;21.80;;;;;;;8.50;83.16;100763.88;3581076;40;20060;-62
2022/09/30 07:11:18;;;;;;;25.98;20.80;;;;;;;8.59;82.96;100766.06;3583535;40;20371;-62
2022/09/30 07:13:46;;;;;;;25.95;21.17;;;;;;;8.74;82.41;100771.50;3580950;40;20090;-62
2022/09/30 07:16:13;;;;;;;25.30;20.80;;;;;;;8.83;82.36;100757.59;3584876;40;20087;-62
2022/09/30 07:18:41;;;;;;;29.27;22.08;;;;;;;9.03;82.34;100764.50;3584715;40;20053;-62
2022/09/30 07:21:08;;;;;;;28.02;21.27;;;;;;;9.17;80.91;100766.44;3580065;40;20044;-62
2022/09/30 07:23:34;;;;;;;30.20;21.98;;;;;;;9.32;81.33;100770.91;3582375;40;20070;-62
2022/09/30 07:26:03;;;;;;;29.73;20.98;;;;;;;9.45;81.37;100757.63;3583704;40;20149;-62
2022/09/30 07:28:34;;;;;;;24.00;21.20;;;;;;;9.67;79.76;100774.25;3583864;40;20052;-62
2022/09/30 07:31:14;;;;;;;25.65;19.48;;;;;;;9.85;79.52;100761.53;3580622;40;20052;-62
2022/09/30 07:33:41;;;;;;;27.35;19.80;;;;;;;10.03;78.14;100769.44;3580563;40;20091;-63
2022/09/30 07:36:08;;;;;;;22.85;18.05;;;;;;;10.17;77.76;100790.94;3581500;40;20056;-63
2022/09/30 07:38:39;;;;;;;25.10;19.00;;;;;;;10.35;77.73;100776.41;3580512;40;20052;-62
2022/09/30 07:41:13;;;;;;;19.92;17.33;;;;;;;10.58;77.57;100774.13;3574687;40;20057;-62
2022/09/30 07:43:44;;;;;;;19.70;17.55;;;;;;;10.74;76.43;100777.56;3580671;40;20056;-62
2022/09/30 07:46:15;;;;;;;18.85;16.27;;;;;;;10.92;75.93;100783.63;3578384;40;20384;-63
2022/09/30 07:48:50;;;;;;;19.25;17.00;;;;;;;10.34;75.17;100664.53;3578950;40;20383;-63
2022/09/30 07:51:40;;;;;;;19.55;17.42;;;;;;;11.23;75.10;100779.81;3579859;40;20064;-62
2022/09/30 07:54:16;;;;;;;20.02;17.13;;;;;;;11.39;74.68;100764.38;3580688;40;20052;-62
2022/09/30 07:56:44;;;;;;;20.88;16.63;;;;;;;11.61;74.73;100771.88;3578689;40;20084;-62
2022/09/30 07:59:11;;;;;;;18.67;16.60;;;;;;;11.77;74.58;100777.09;3578930;40;20055;-63
2022/09/30 08:01:37;;;;;;;19.13;16.95;;;;;;;11.96;73.73;100779.44;3580651;40;20062;-63
2022/09/30 08:04:07;;;;;;;20.02;17.15;;;;;;;12.13;73.55;100772.88;3581006;40;20074;-63
2022/09/30 08:06:44;;;;;;;19.15;17.02;;;;;;;12.23;73.08;100773.09;3577949;40;20052;-63
2022/09/30 08:09:10;;;;;;;21.75;16.50;;;;;;;12.43;72.68;100791.47;3578903;40;20057;-63
2022/09/30 08:11:38;;;;;;;18.20;16.08;;;;;;;12.59;71.21;100768.78;3585224;40;20130;-63
2022/09/30 08:14:04;;;;;;;20.27;17.23;;;;;;;12.22;70.71;100698.63;3578282;40;20457;-63
2022/09/30 08:16:31;;;;;;;20.48;17.05;;;;;;;12.69;69.94;100783.34;3580833;40;20092;-63
2022/09/30 08:19:01;;;;;;;21.88;18.90;;;;;;;12.74;69.91;100771.25;3586305;40;20053;-64
2022/09/30 08:21:28;;;;;;;21.48;17.63;;;;;;;12.91;70.10;100786.22;3578738;40;20108;-63
2022/09/30 08:23:54;;;;;;;21.50;18.38;;;;;;;13.04;70.00;100786.22;3578699;40;20380;-63
2022/09/30 08:26:20;;;;;;;20.17;17.98;;;;;;;12.61;69.99;100694.88;3581555;40;20055;-64
2022/09/30 08:28:47;;;;;;;21.45;17.73;;;;;;;13.31;69.06;100787.88;3580644;40;20256;-63
2022/09/30 08:31:22;;;;;;;20.23;17.25;;;;;;;13.38;68.43;100783.75;3579229;40;20106;-63
2022/09/30 08:33:49;;;;;;;19.75;17.58;;;;;;;12.93;68.81;100676.34;3580644;40;20399;-63
2022/09/30 08:36:24;;;;;;;20.55;17.25;;;;;;;13.73;67.90;100766.72;3577395;40;20053;-63
2022/09/30 08:38:51;;;;;;;20.45;16.30;;;;;;;13.92;67.32;100786.84;3579170;40;20056;-63
2022/09/30 08:41:41;;;;;;;19.33;16.58;;;;;;;14.09;67.09;100772.03;3580276;40;20060;-63
2022/09/30 08:44:42;;;;;;;18.40;15.60;;;;;;;14.26;66.25;100777.94;3578705;40;20059;-63
2022/09/30 08:47:46;;;;;;;16.73;15.02;;;;;;;14.43;66.30;100780.22;3577387;40;20060;-64
2022/09/30 08:50:26;;;;;;;17.27;14.57;;;;;;;14.56;65.53;100782.84;3578964;40;20064;-63
2022/09/30 08:53:02;;;;;;;16.63;14.80;;;;;;;14.70;66.42;100777.16;3577485;40;20053;-63
2022/09/30 08:55:44;;;;;;;20.90;14.73;;;;;;;14.94;65.80;100782.47;3577678;40;20053;-63
2022/09/30 08:58:30;;;;;;;16.60;14.40;;;;;;;14.28;66.17;100643.50;3577073;40;20055;-63
2022/09/30 09:01:26;;;;;;;15.48;13.88;;;;;;;15.36;64.35;100793.47;3578395;40;20095;-63
2022/09/30 09:03:53;;;;;;;18.60;15.13;;;;;;;15.16;64.74;100713.91;3578969;40;20118;-63
2022/09/30 09:06:27;;;;;;;16.30;14.55;;;;;;;15.75;64.53;100791.16;3577191;40;20064;-63
2022/09/30 09:08:58;;;;;;;15.02;13.43;;;;;;;15.85;62.52;100781.25;3579399;40;20052;-63
2022/09/30 09:11:56;;;;;;;14.95;12.57;;;;;;;15.97;62.22;100772.09;3578126;40;20064;-63
2022/09/30 09:14:52;;;;;;;16.50;12.63;;;;;;;16.10;62.31;100771.03;3578691;40;20117;-64
2022/09/30 09:18:25;;;;;;;14.25;12.05;;;;;;;16.33;62.28;100778.03;3579483;40;20048;-64
2022/09/30 09:21:10;;;;;;;13.63;11.75;;;;;;;16.60;62.11;100784.78;3555568;40;20054;-63
2022/09/30 09:23:36;;;;;;;14.05;11.80;;;;;;;16.18;61.28;100674.47;3580315;40;20953;-63
2022/09/30 09:26:04;;;;;;;14.52;11.52;;;;;;;16.99;61.86;100782.25;3578506;40;20061;-63
2022/09/30 09:28:51;;;;;;;12.95;10.82;;;;;;;17.28;61.27;100779.63;3579743;40;20059;-64
2022/09/30 09:31:19;;;;;;;11.60;10.13;;;;;;;17.56;60.12;100784.25;3583585;40;20091;-64
2022/09/30 09:33:46;;;;;;;12.13;8.98;;;;;;;17.78;59.40;100796.75;3578805;40;20064;-64
2022/09/30 09:36:38;;;;;;;10.55;9.10;;;;;;;17.95;58.33;100792.50;3577598;40;20052;-64
2022/09/30 09:39:48;;;;;;;14.82;10.13;;;;;;;18.06;56.76;100805.06;3577665;40;20053;-63
2022/09/30 09:42:38;;;;;;;10.55;8.60;;;;;;;18.24;58.39;100800.63;3577887;40;20053;-64
2022/09/30 09:45:33;;;;;;;12.32;8.55;;;;;;;18.26;57.04;100797.75;3578075;40;20064;-63
2022/09/30 09:48:00;;;;;;;9.43;8.27;;;;;;;18.39;56.62;100781.09;3577999;40;20055;-64
2022/09/30 09:50:56;;;;;;;9.15;8.00;;;;;;;18.45;56.43;100791.41;3583113;40;20037;-62
2022/09/30 09:53:49;;;;;;;8.30;6.90;;;;;;;18.43;55.64;100785.28;3576572;40;20078;-63
2022/09/30 09:56:20;;;;;;;8.68;7.03;;;;;;;18.64;56.82;100783.19;3579714;40;20098;-64
2022/09/30 09:59:17;;;;;;;8.70;7.65;;;;;;;18.86;54.89;100764.81;3581004;40;20077;-64
2022/09/30 10:01:53;;;;;;;9.23;7.18;;;;;;;19.01;54.29;100772.31;3579573;40;20067;-64
2022/09/30 10:04:28;;;;;;;7.32;6.53;;;;;;;19.19;55.50;100785.16;3581214;40;20060;-63
2022/09/30 10:07:00;;;;;;;8.98;6.57;;;;;;;19.36;55.56;100778.88;3583914;40;20052;-64
2022/09/30 10:09:37;;;;;;;6.28;5.68;;;;;;;19.39;52.55;100778.56;3580860;40;20106;-64
2022/09/30 10:12:05;;;;;;;8.20;6.05;;;;;;;19.46;53.45;100781.53;3577106;40;20045;-64
2022/09/30 10:14:46;;;;;;;9.13;5.32;;;;;;;19.52;53.18;100783.66;3578532;40;20076;-63
2022/09/30 10:17:39;;;;;;;5.53;5.03;;;;;;;19.65;52.61;100775.13;3576903;40;20130;-64
2022/09/30 10:20:13;;;;;;;5.97;4.90;;;;;;;19.90;51.98;100778.94;3575955;40;20126;-64
2022/09/30 10:22:40;;;;;;;5.22;4.72;;;;;;;19.98;50.57;100776.31;3578966;40;20092;-64
2022/09/30 10:25:16;;;;;;;7.28;4.90;;;;;;;20.00;50.48;100781.59;3580398;40;20060;-64
2022/09/30 10:27:53;;;;;;;6.03;4.60;;;;;;;;;;3579603;40;20064;-64
2022/09/30 10:30:47;;;;;;;6.10;4.70;;;;;;;20.07;50.77;100790.84;3578638;40;20071;-63
2022/09/30 10:33:31;;;;;;;5.40;4.88;;;;;;;20.28;50.13;100793.25;3578924;40;20049;-64
2022/09/30 10:36:13;;;;;;;6.97;4.60;;;;;;;20.45;48.83;100770.50;3576989;40;20053;-64
2022/09/30 10:39:00;;;;;;;7.97;4.57;;;;;;;20.63;48.40;100792.34;3577593;40;20060;-63
2022/09/30 10:41:31;;;;;;;5.55;4.60;;;;;;;20.85;48.69;100791.78;3577906;40;20059;-63
2022/09/30 10:44:12;;;;;;;5.68;4.30;;;;;;;20.72;48.09;100790.53;3580631;40;20096;-64
2022/09/30 10:46:43;;;;;;;4.10;3.70;;;;;;;20.56;47.02;100786.66;3578104;40;20067;-64
2022/09/30 10:49:27;;;;;;;4.63;3.75;;;;;;;20.46;47.44;100790.50;3576141;40;20051;-65
2022/09/30 10:51:55;;;;;;;4.15;3.33;;;;;;;20.47;45.92;100784.00;3578209;40;20052;-65
2022/09/30 10:54:39;;;;;;;3.92;2.90;;;;;;;20.37;46.11;100784.97;3579043;40;20346;-65
2022/09/30 10:57:24;;;;;;;3.35;3.08;;;;;;;20.49;46.39;100791.03;3575387;40;20364;-65
2022/09/30 11:00:09;;;;;;;2.70;2.50;;;;;;;20.37;45.94;100787.69;3579708;40;20120;-65
2022/09/30 11:03:06;;;;;;;2.80;2.60;;;;;;;20.59;46.92;100783.63;3578238;40;20091;-65
2022/09/30 11:05:43;;;;;;;2.25;1.88;;;;;;;20.96;44.30;100782.44;3578139;40;20095;-65
2022/09/30 11:08:38;;;;;;;2.95;1.70;;;;;;;21.01;44.01;100790.16;3582057;40;20050;-64
2022/09/30 11:11:26;;;;;;;2.05;1.95;;;;;;;21.15;43.89;100777.72;3579735;40;20049;-64
2022/09/30 11:14:31;;;;;;;1.92;1.83;;;;;;;21.48;44.50;100776.88;3580691;40;20404;-64
2022/09/30 11:17:25;;;;;;;2.10;2.00;;;;;;;21.56;43.93;100778.75;3578234;40;20307;-64
2022/09/30 11:20:27;;;;;;;2.13;2.03;;;;;;;21.18;44.33;100777.41;3581030;40;20100;-64
2022/09/30 11:23:39;;;;;;;2.30;2.00;;;;;;;21.34;44.39;100780.19;3582147;40;20063;-64
2022/09/30 11:26:45;;;;;;;3.17;2.03;;;;;;;21.56;44.06;100784.22;3581636;40;20057;-65
2022/09/30 11:29:46;;;;;;;2.05;1.90;;;;;;;21.18;43.40;100781.00;3579291;40;20057;-63
2022/09/30 11:33:00;;;;;;;4.20;2.20;;;;;;;21.17;43.60;100779.28;3579605;40;20385;-63
2022/09/30 11:35:51;;;;;;;2.65;2.10;;;;;;;21.09;43.96;100771.03;3579044;40;20053;-63
2022/09/30 11:38:30;;;;;;;2.30;2.20;;;;;;;20.71;44.01;100668.59;3581334;40;20044;-65
2022/09/30 11:41:15;;;;;;;2.65;2.45;;;;;;;21.68;44.03;100761.00;3579297;40;20061;-63
2022/09/30 11:44:04;;;;;;;2.40;2.20;;;;;;;22.15;43.83;100773.19;3577547;40;20052;-63
2022/09/30 11:46:35;;;;;;;2.92;2.72;;;;;;;22.40;41.37;100761.19;3578409;40;20048;-63
2022/09/30 11:49:45;;;;;;;2.33;2.13;;;;;;;22.58;41.25;100749.16;3580153;40;20052;-63
2022/09/30 11:52:19;;;;;;;2.58;2.45;;;;;;;22.69;40.56;100755.13;3578325;40;20375;-63
2022/09/30 11:55:22;;;;;;;3.85;2.60;;;;;;;22.80;40.46;100756.63;3577252;40;20056;-65
2022/09/30 11:57:59;;;;;;;6.00;2.47;;;;;;;22.39;40.28;100649.94;3577542;40;20041;-63
2022/09/30 12:00:29;;;;;;;2.88;2.47;;;;;;;21.77;39.76;100617.69;3581143;40;20284;-63